createdAt,value
2018-11-21T00:02:35.775Z,13.03
2018-11-21T00:05:24.117Z,12.63
2018-11-21T00:08:12.485Z,9.60
2018-11-21T00:14:08.910Z,12.20
2018-11-21T00:16:57.253Z,11.30
2018-11-21T00:19:45.852Z,11.75
2018-11-21T00:22:34.204Z,13.30
2018-11-21T00:25:22.540Z,10.85
2018-11-21T00:28:11.161Z,13.05
2018-11-21T00:30:59.503Z,16.25
2018-11-21T00:33:48.109Z,16.97
2018-11-21T00:36:36.682Z,13.15
2018-11-21T00:39:25.277Z,20.57
2018-11-21T00:42:13.891Z,18.80
2018-11-21T00:45:02.484Z,19.50
2018-11-21T00:47:50.820Z,12.15
2018-11-21T00:50:39.172Z,13.50
2018-11-21T00:53:27.852Z,11.70
2018-11-21T00:56:16.211Z,15.75
2018-11-21T00:59:04.566Z,14.73
2018-11-21T01:04:47.995Z,10.03
2018-11-21T01:07:36.605Z,12.82
2018-11-21T01:10:24.986Z,17.05
2018-11-21T01:13:13.311Z,11.68
2018-11-21T01:16:01.942Z,13.30
2018-11-21T01:18:50.280Z,14.90
2018-11-21T01:24:32.957Z,11.53
2018-11-21T01:27:21.601Z,9.08
2018-11-21T01:30:09.957Z,12.50
2018-11-21T01:36:06.491Z,14.05
2018-11-21T01:38:54.839Z,11.97
2018-11-21T01:41:43.416Z,17.25
2018-11-21T01:44:31.772Z,14.18
2018-11-21T01:47:20.121Z,12.58
2018-11-21T01:50:08.953Z,11.00
2018-11-21T01:52:57.306Z,11.73
2018-11-21T01:55:38.225Z,15.90
2018-11-21T01:58:19.144Z,21.87
2018-11-21T02:01:00.182Z,11.88
2018-11-21T02:03:41.269Z,20.62
2018-11-21T02:06:22.513Z,20.55
2018-11-21T02:09:05.372Z,12.73
2018-11-21T02:11:46.650Z,11.12
2018-11-21T02:14:27.965Z,12.13
2018-11-21T02:17:09.221Z,24.67
2018-11-21T02:19:49.973Z,12.75
2018-11-21T02:22:31.336Z,13.53
2018-11-21T02:25:12.544Z,8.80
2018-11-21T02:27:53.275Z,16.82
2018-11-21T02:30:34.223Z,9.95
2018-11-21T02:33:15.404Z,11.60
2018-11-21T02:35:56.114Z,24.85
2018-11-21T02:38:37.369Z,10.15
2018-11-21T02:41:17.807Z,15.63
2018-11-21T02:43:59.038Z,16.80
2018-11-21T02:46:40.111Z,17.82
2018-11-21T02:49:21.600Z,17.60
2018-11-21T02:52:02.604Z,15.98
2018-11-21T02:54:43.996Z,9.80
2018-11-21T02:57:29.584Z,17.50
2018-11-21T03:00:10.489Z,16.60
2018-11-21T03:02:51.816Z,19.62
2018-11-21T03:05:33.233Z,15.05
2018-11-21T03:08:14.349Z,13.72
2018-11-21T03:10:55.621Z,16.07
2018-11-21T03:13:36.798Z,15.05
2018-11-21T03:16:17.854Z,11.00
2018-11-21T03:18:58.401Z,18.70
2018-11-21T03:21:39.532Z,11.97
2018-11-21T03:24:20.905Z,21.52
2018-11-21T03:27:02.255Z,14.45
2018-11-21T03:29:43.585Z,14.70
2018-11-21T03:32:24.826Z,20.15
2018-11-21T03:35:06.127Z,14.98
2018-11-21T03:37:47.006Z,11.70
2018-11-21T03:40:28.381Z,16.15
2018-11-21T03:43:09.565Z,21.65
2018-11-21T03:45:50.741Z,10.13
2018-11-21T03:48:31.213Z,15.98
2018-11-21T03:51:12.445Z,15.32
2018-11-21T03:53:54.040Z,23.40
2018-11-21T03:56:35.825Z,20.32
2018-11-21T03:59:16.893Z,12.03
2018-11-21T04:01:58.134Z,33.88
2018-11-21T04:04:39.750Z,19.77
2018-11-21T04:07:20.680Z,12.15
2018-11-21T04:10:01.911Z,22.13
2018-11-21T04:12:43.144Z,17.07
2018-11-21T04:15:24.398Z,14.95
2018-11-21T04:18:05.317Z,17.30
2018-11-21T04:20:46.469Z,17.60
2018-11-21T04:23:26.999Z,14.78
2018-11-21T04:26:07.765Z,19.67
2018-11-21T04:28:49.215Z,15.43
2018-11-21T04:31:30.082Z,18.70
2018-11-21T04:34:11.442Z,14.70
2018-11-21T04:36:52.263Z,15.05
2018-11-21T04:39:33.473Z,15.93
2018-11-21T04:42:14.529Z,12.47
2018-11-21T04:44:55.965Z,16.80
2018-11-21T04:47:37.053Z,10.45
2018-11-21T04:50:18.328Z,25.30
2018-11-21T04:52:59.651Z,18.67
2018-11-21T04:55:40.817Z,21.33
2018-11-21T04:58:22.128Z,15.32
2018-11-21T05:01:03.261Z,13.90
2018-11-21T05:03:43.888Z,12.90
2018-11-21T05:06:25.193Z,18.95
2018-11-21T05:09:06.188Z,23.52
2018-11-21T05:11:46.780Z,14.98
2018-11-21T05:14:28.120Z,21.42
2018-11-21T05:17:09.320Z,15.68
2018-11-21T05:19:50.302Z,18.37
2018-11-21T05:22:31.200Z,7.30
2018-11-21T05:25:12.369Z,11.60
2018-11-21T05:27:53.314Z,8.95
2018-11-21T05:30:34.498Z,17.50
2018-11-21T05:33:15.809Z,9.00
2018-11-21T05:35:57.315Z,19.65
2018-11-21T05:38:38.606Z,16.40
2018-11-21T05:41:20.120Z,15.10
2018-11-21T05:44:01.656Z,18.20
2018-11-21T05:46:42.310Z,11.48
2018-11-21T05:49:23.645Z,11.03
2018-11-21T05:52:05.049Z,13.90
2018-11-21T05:54:46.317Z,14.83
2018-11-21T05:57:27.018Z,15.23
2018-11-21T06:00:08.653Z,13.65
2018-11-21T06:02:49.981Z,17.17
2018-11-21T06:05:31.532Z,24.60
2018-11-21T06:08:12.344Z,21.37
2018-11-21T06:10:53.339Z,18.10
2018-11-21T06:13:34.605Z,13.65
2018-11-21T06:16:15.993Z,17.52
2018-11-21T06:18:56.812Z,19.57
2018-11-21T06:21:38.333Z,15.83
2018-11-21T06:24:19.481Z,15.30
2018-11-21T06:27:01.863Z,17.45
2018-11-21T06:29:42.932Z,16.60
2018-11-21T06:32:23.763Z,16.62
2018-11-21T06:35:05.240Z,9.83
2018-11-21T06:37:45.843Z,24.15
2018-11-21T06:40:27.024Z,11.97
2018-11-21T06:43:08.273Z,19.48
2018-11-21T06:45:49.246Z,15.05
2018-11-21T06:48:30.500Z,9.73
2018-11-21T06:51:11.916Z,15.58
2018-11-21T06:53:53.296Z,14.23
2018-11-21T06:56:34.682Z,15.15
2018-11-21T06:59:15.354Z,12.78
2018-11-21T07:01:56.748Z,8.55
2018-11-21T07:04:37.401Z,13.32
2018-11-21T07:07:18.682Z,11.63
2018-11-21T07:09:59.916Z,12.60
2018-11-21T07:12:41.068Z,11.85
2018-11-21T07:15:22.370Z,13.13
2018-11-21T07:18:03.262Z,15.15
2018-11-21T07:20:44.760Z,16.95
2018-11-21T07:23:26.319Z,21.50
2018-11-21T07:26:07.148Z,13.32
2018-11-21T07:28:48.572Z,15.15
2018-11-21T07:31:29.860Z,16.25
2018-11-21T07:34:11.125Z,14.33
2018-11-21T07:36:52.667Z,14.80
2018-11-21T07:39:34.036Z,14.25
2018-11-21T07:42:15.438Z,18.10
2018-11-21T07:44:56.628Z,12.20
2018-11-21T07:47:38.299Z,11.20
2018-11-21T07:50:20.945Z,16.82
2018-11-21T07:53:02.130Z,13.98
2018-11-21T07:55:43.389Z,13.78
2018-11-21T07:58:25.345Z,15.08
2018-11-21T08:01:24.875Z,14.85
2018-11-21T08:04:30.609Z,15.03
2018-11-21T08:07:20.708Z,15.00
2018-11-21T08:10:21.357Z,12.47
2018-11-21T08:13:28.502Z,12.00
2018-11-21T08:19:58.787Z,15.45
2018-11-21T08:23:06.159Z,15.88
2018-11-21T08:26:13.289Z,15.48
2018-11-21T08:29:01.633Z,9.98
2018-11-21T08:31:49.976Z,12.07
2018-11-21T08:34:38.333Z,10.20
2018-11-21T08:37:26.668Z,13.55
2018-11-21T08:40:14.997Z,9.10
2018-11-21T08:43:03.536Z,12.23
2018-11-21T08:45:51.930Z,19.12
2018-11-21T08:48:40.285Z,11.75
2018-11-21T08:51:28.615Z,11.60
2018-11-21T08:54:17.265Z,17.23
2018-11-21T08:57:06.012Z,12.45
2018-11-21T08:59:54.387Z,9.10
2018-11-21T09:02:42.882Z,14.80
2018-11-21T09:05:31.350Z,16.40
2018-11-21T09:08:19.708Z,17.40
2018-11-21T09:11:08.064Z,12.90
2018-11-21T09:13:56.419Z,9.88
2018-11-21T09:16:44.748Z,12.00
2018-11-21T09:19:33.107Z,17.77
2018-11-21T09:22:21.449Z,14.93
2018-11-21T09:25:10.502Z,13.05
2018-11-21T09:27:58.860Z,16.40
2018-11-21T09:30:47.466Z,14.75
2018-11-21T09:33:36.314Z,11.25
2018-11-21T09:36:24.657Z,8.85
2018-11-21T09:39:13.725Z,11.55
2018-11-21T09:42:21.130Z,15.83
2018-11-21T09:45:11.410Z,12.75
2018-11-21T09:47:58.997Z,8.28
2018-11-21T09:50:47.629Z,13.65
2018-11-21T09:53:35.980Z,18.00
2018-11-21T09:56:24.325Z,9.98
2018-11-21T09:59:13.080Z,12.98
2018-11-21T10:02:20.453Z,10.50
2018-11-21T10:05:09.068Z,9.40
2018-11-21T10:08:01.422Z,14.60
2018-11-21T10:10:50.122Z,9.98
2018-11-21T10:13:38.452Z,7.72
2018-11-21T10:16:27.172Z,12.35
2018-11-21T10:19:15.520Z,8.88
2018-11-21T10:22:03.859Z,10.90
2018-11-21T10:24:52.528Z,16.97
2018-11-21T10:27:40.869Z,14.20
2018-11-21T10:30:29.234Z,12.68
2018-11-21T10:33:17.903Z,7.75
2018-11-21T10:36:06.294Z,12.55
2018-11-21T10:38:54.627Z,10.93
2018-11-21T10:41:42.985Z,11.28
2018-11-21T10:47:39.502Z,11.43
2018-11-21T10:50:27.869Z,11.30
2018-11-21T10:53:16.222Z,13.43
2018-11-21T10:56:04.590Z,7.87
2018-11-21T10:58:53.247Z,9.43
2018-11-21T11:02:00.658Z,12.53
2018-11-21T11:05:07.829Z,8.58
2018-11-21T11:08:10.036Z,7.15
2018-11-21T11:11:17.184Z,10.03
2018-11-21T11:14:24.479Z,10.93
2018-11-21T11:17:31.619Z,11.45
2018-11-21T11:20:38.770Z,10.23
2018-11-21T11:23:41.624Z,8.85
2018-11-21T11:26:48.801Z,6.83
2018-11-21T11:29:55.930Z,6.40
2018-11-21T11:33:03.093Z,14.50
2018-11-21T11:36:10.229Z,10.08
2018-11-21T11:39:17.367Z,14.70
2018-11-21T11:42:24.612Z,8.33
2018-11-21T11:45:31.764Z,12.88
2018-11-21T11:48:38.919Z,9.33
2018-11-21T11:51:46.043Z,8.50
2018-11-21T11:54:53.175Z,7.47
2018-11-21T11:58:00.347Z,7.37
2018-11-21T12:01:07.493Z,9.23
2018-11-21T12:04:14.649Z,5.22
2018-11-21T12:07:21.783Z,8.38
2018-11-21T12:10:28.907Z,8.55
2018-11-21T12:13:36.060Z,7.50
2018-11-21T12:16:43.202Z,7.60
2018-11-21T12:19:50.357Z,9.08
2018-11-21T12:22:57.517Z,6.62
2018-11-21T12:26:10.399Z,6.28
2018-11-21T12:29:11.778Z,7.70
2018-11-21T12:32:18.932Z,8.88
2018-11-21T12:35:27.081Z,7.47
2018-11-21T12:38:27.984Z,4.97
2018-11-21T12:44:34.424Z,6.25
2018-11-21T12:47:34.206Z,9.50
2018-11-21T12:50:34.401Z,9.58
2018-11-21T12:53:34.966Z,8.08
2018-11-21T12:56:29.148Z,7.08
2018-11-21T12:59:30.398Z,9.03
2018-11-21T13:02:36.348Z,6.40
2018-11-21T13:05:26.197Z,7.55
2018-11-21T13:08:20.185Z,10.38
2018-11-21T13:11:20.746Z,9.10
2018-11-21T13:14:21.466Z,8.85
2018-11-21T13:20:28.550Z,7.67
2018-11-21T13:26:38.895Z,6.33
2018-11-21T13:29:38.469Z,6.90
2018-11-21T13:35:41.803Z,5.78
2018-11-21T13:41:46.522Z,9.28
2018-11-21T13:44:37.216Z,7.83
2018-11-21T13:50:44.769Z,7.58
2018-11-21T13:53:40.070Z,9.53
2018-11-21T13:56:21.660Z,6.72
2018-11-21T13:59:02.423Z,8.48
2018-11-21T14:01:43.710Z,6.90
2018-11-21T14:04:24.837Z,7.15
2018-11-21T14:07:05.797Z,8.53
2018-11-21T14:09:46.476Z,6.12
2018-11-21T14:12:27.508Z,8.35
2018-11-21T14:15:08.499Z,7.12
2018-11-21T14:17:49.236Z,6.95
2018-11-21T14:20:30.683Z,6.58
2018-11-21T14:23:11.921Z,8.85
2018-11-21T14:25:53.140Z,9.75
2018-11-21T14:28:34.543Z,5.35
2018-11-21T14:31:15.361Z,7.00
2018-11-21T14:33:55.960Z,6.60
2018-11-21T14:36:36.906Z,8.10
2018-11-21T14:39:18.268Z,7.33
2018-11-21T14:41:59.904Z,9.70
2018-11-21T14:44:41.292Z,6.58
2018-11-21T14:47:20.676Z,8.10
2018-11-21T14:50:28.065Z,6.90
2018-11-21T14:53:16.645Z,8.13
2018-11-21T14:56:04.960Z,7.20
2018-11-21T14:58:53.613Z,7.00
2018-11-21T15:01:42.283Z,5.40
2018-11-21T15:04:30.613Z,5.58
2018-11-21T15:07:18.956Z,7.00
2018-11-21T15:10:07.538Z,11.12
2018-11-21T15:12:56.132Z,7.62
2018-11-21T15:15:45.004Z,6.12
2018-11-21T15:18:33.313Z,4.87
2018-11-21T15:21:21.894Z,5.53
2018-11-21T15:24:10.531Z,7.17
2018-11-21T15:26:59.168Z,5.83
2018-11-21T15:29:48.274Z,4.83
2018-11-21T15:32:36.611Z,3.50
2018-11-21T15:35:25.131Z,5.80
2018-11-21T15:38:13.763Z,7.03
2018-11-21T15:41:02.068Z,5.55
2018-11-21T15:43:50.388Z,5.47
2018-11-21T15:46:45.414Z,6.72
2018-11-21T15:49:27.289Z,3.87
2018-11-21T15:52:15.643Z,7.20
2018-11-21T15:55:03.978Z,9.85
2018-11-21T15:57:52.308Z,6.05
2018-11-21T16:00:40.947Z,3.80
2018-11-21T16:03:29.285Z,4.20
2018-11-21T16:06:17.840Z,5.33
2018-11-21T16:09:08.283Z,9.88
2018-11-21T16:11:56.964Z,6.10
2018-11-21T16:14:45.306Z,5.10
2018-11-21T16:17:34.015Z,9.65
2018-11-21T16:20:22.638Z,7.78
2018-11-21T16:23:10.961Z,8.00
2018-11-21T16:25:59.299Z,5.85
2018-11-21T16:28:47.955Z,4.55
2018-11-21T16:31:36.852Z,8.78
2018-11-21T16:34:25.195Z,7.25
2018-11-21T16:37:13.504Z,5.92
2018-11-21T16:40:01.972Z,5.95
2018-11-21T16:42:50.735Z,6.42
2018-11-21T16:45:41.580Z,6.20
2018-11-21T16:48:29.899Z,5.50
2018-11-21T16:51:18.247Z,2.70
2018-11-21T16:54:06.564Z,6.80
2018-11-21T16:56:55.152Z,4.00
2018-11-21T16:59:43.833Z,4.72
2018-11-21T17:02:32.499Z,5.70
2018-11-21T17:08:29.736Z,5.53
2018-11-21T17:11:18.068Z,8.55
2018-11-21T17:14:06.516Z,6.53
2018-11-21T17:16:54.835Z,5.47
2018-11-21T17:19:43.147Z,4.33
2018-11-21T17:22:31.488Z,7.80
2018-11-21T17:25:21.348Z,7.75
2018-11-21T17:28:09.828Z,4.62
2018-11-21T17:30:58.436Z,6.53
2018-11-21T17:33:52.038Z,6.97
2018-11-21T17:36:35.428Z,6.42
2018-11-21T17:39:24.147Z,6.58
2018-11-21T17:42:12.452Z,6.53
2018-11-21T17:45:00.874Z,4.78
2018-11-21T17:47:49.523Z,5.10
2018-11-21T17:50:37.861Z,4.42
2018-11-21T17:56:20.797Z,3.92
2018-11-21T17:59:09.437Z,5.47
2018-11-21T18:01:57.764Z,5.05
2018-11-21T18:04:46.395Z,4.08
2018-11-21T18:07:34.732Z,5.17
2018-11-21T18:10:24.571Z,5.37
2018-11-21T18:13:12.876Z,8.50
2018-11-21T18:16:01.189Z,5.92
2018-11-21T18:21:44.623Z,4.33
2018-11-21T18:24:32.937Z,6.97
2018-11-21T18:27:21.242Z,6.50
2018-11-21T18:33:04.499Z,5.03
2018-11-21T18:35:53.092Z,7.10
2018-11-21T18:38:49.027Z,4.50
2018-11-21T18:41:37.364Z,5.47
2018-11-21T18:44:25.700Z,7.10
2018-11-21T18:47:14.035Z,6.47
2018-11-21T18:50:02.344Z,7.87
2018-11-21T18:52:52.242Z,8.98
2018-11-21T18:55:41.744Z,5.35
2018-11-21T18:58:49.355Z,10.55
2018-11-21T19:01:37.946Z,10.32
2018-11-21T19:04:26.608Z,13.15
2018-11-21T19:07:14.923Z,6.20
2018-11-21T19:10:03.751Z,6.30
2018-11-21T19:12:52.396Z,6.10
2018-11-21T19:15:40.984Z,4.05
2018-11-21T19:18:29.644Z,7.15
2018-11-21T19:21:18.524Z,5.45
2018-11-21T19:24:06.849Z,3.42
2018-11-21T19:26:55.743Z,5.12
2018-11-21T19:29:44.320Z,5.12
2018-11-21T19:32:33.064Z,5.53
2018-11-21T19:35:21.392Z,10.40
2018-11-21T19:38:09.715Z,7.92
2018-11-21T19:40:58.276Z,5.60
2018-11-21T19:46:54.483Z,4.58
2018-11-21T19:49:43.120Z,7.15
2018-11-21T19:52:31.717Z,7.37
2018-11-21T19:55:38.874Z,10.28
2018-11-21T19:58:27.181Z,10.88
2018-11-21T20:01:15.840Z,8.50
2018-11-21T20:04:04.178Z,5.20
2018-11-21T20:09:46.728Z,9.33
2018-11-21T20:12:39.801Z,7.65
2018-11-21T20:15:25.183Z,4.70
2018-11-21T20:18:13.783Z,4.90
2018-11-21T20:21:02.095Z,5.22
2018-11-21T20:23:50.432Z,12.93
2018-11-21T20:29:32.663Z,12.80
2018-11-21T20:32:21.382Z,5.97
2018-11-21T20:35:10.256Z,7.05
2018-11-21T20:37:58.887Z,6.83
2018-11-21T20:40:47.530Z,9.13
2018-11-21T20:43:36.141Z,6.37
2018-11-21T20:49:32.343Z,3.98
2018-11-21T20:52:20.661Z,5.28
2018-11-21T20:55:10.118Z,5.15
2018-11-21T20:57:58.739Z,5.75
2018-11-21T21:00:47.046Z,4.05
2018-11-21T21:03:35.377Z,4.30
2018-11-21T21:06:23.687Z,3.92
2018-11-21T21:09:14.080Z,7.17
2018-11-21T21:12:02.377Z,12.23
2018-11-21T21:14:50.729Z,6.75
2018-11-21T21:17:39.780Z,4.05
2018-11-21T21:23:36.615Z,5.47
2018-11-21T21:26:24.923Z,4.08
2018-11-21T21:29:13.250Z,8.10
2018-11-21T21:32:01.925Z,5.70
2018-11-21T21:34:50.286Z,5.42
2018-11-21T21:37:38.604Z,9.28
2018-11-21T21:40:26.943Z,7.97
2018-11-21T21:43:15.291Z,9.23
2018-11-21T21:46:07.798Z,6.65
2018-11-21T21:48:52.243Z,4.25
2018-11-21T21:51:40.576Z,6.78
2018-11-21T21:54:28.917Z,12.18
2018-11-21T21:57:17.237Z,12.75
2018-11-21T22:00:08.603Z,10.38
2018-11-21T22:02:57.945Z,10.45
2018-11-21T22:05:46.287Z,4.53
2018-11-21T22:08:34.910Z,9.53
2018-11-21T22:11:23.241Z,7.15
2018-11-21T22:14:11.817Z,10.45
2018-11-21T22:17:00.404Z,5.92
2018-11-21T22:19:49.262Z,24.70
2018-11-21T22:22:37.577Z,10.78
2018-11-21T22:25:26.158Z,8.55
2018-11-21T22:28:14.474Z,7.65
2018-11-21T22:31:03.135Z,6.12
2018-11-21T22:33:51.801Z,5.10
2018-11-21T22:36:40.112Z,7.60
2018-11-21T22:39:28.721Z,11.43
2018-11-21T22:42:17.292Z,9.35
2018-11-21T22:45:06.462Z,25.40
2018-11-21T22:47:55.050Z,28.60
2018-11-21T22:50:43.710Z,26.77
2018-11-21T22:56:39.909Z,11.45
2018-11-21T22:59:28.516Z,13.98
2018-11-21T23:02:17.185Z,7.87
2018-11-21T23:05:05.904Z,7.50
2018-11-21T23:07:54.238Z,14.05
2018-11-21T23:10:42.579Z,3.58
2018-11-21T23:13:30.902Z,6.50
2018-11-21T23:16:19.748Z,14.83
2018-11-21T23:19:08.305Z,4.35
2018-11-21T23:21:49.573Z,7.10
2018-11-21T23:24:30.563Z,5.92
2018-11-21T23:27:12.061Z,4.80
2018-11-21T23:29:52.973Z,7.55
2018-11-21T23:32:33.448Z,8.38
2018-11-21T23:35:15.289Z,11.40
2018-11-21T23:37:56.995Z,6.12
2018-11-21T23:40:38.037Z,4.60
2018-11-21T23:43:19.484Z,6.60
2018-11-21T23:46:00.477Z,7.75
2018-11-21T23:48:41.942Z,7.45
2018-11-21T23:51:22.536Z,10.18
2018-11-21T23:54:02.244Z,5.22
2018-11-21T23:59:45.587Z,10.50
